Terminal Aerodrome Forecast
Issued by NWS

Home | Current Version | Previous Version | Text Only | Print | Product List | Glossary On
Versions: 1 2 3 4 5 6 7 8 9 10 11 12 13 14 15 16 17 18
469
FTUS45 KABQ 222333
TAFTCC
TAF
KTCC 222333Z 2300/2324 22021G29KT P6SM SKC
     FM230130 23010KT P6SM SKC
     FM230700 26007KT P6SM SKC
     FM231900 20017G28KT P6SM SCT200=

USA.gov is the U.S. government's official web portal to all federal, state and local government web resources and services.